sensor_id;sensor_type;location;lat;lon;timestamp;P1;durP1;ratioP1;P2;durP2;ratioP2
24617;SDS011;12762;51.730;5.356;2023-07-31T00:02:19;24.10;;;7.87;;
24617;SDS011;12762;51.730;5.356;2023-07-31T00:04:45;26.10;;;8.23;;
24617;SDS011;12762;51.730;5.356;2023-07-31T00:07:12;25.10;;;8.00;;
24617;SDS011;12762;51.730;5.356;2023-07-31T00:09:39;25.43;;;8.67;;
24617;SDS011;12762;51.730;5.356;2023-07-31T00:12:06;26.80;;;8.70;;
24617;SDS011;12762;51.730;5.356;2023-07-31T00:14:33;24.77;;;8.00;;
24617;SDS011;12762;51.730;5.356;2023-07-31T00:17:00;25.23;;;8.17;;
24617;SDS011;12762;51.730;5.356;2023-07-31T00:19:27;23.13;;;8.00;;
24617;SDS011;12762;51.730;5.356;2023-07-31T00:21:54;22.57;;;8.20;;
24617;SDS011;12762;51.730;5.356;2023-07-31T00:24:23;23.70;;;8.43;;
24617;SDS011;12762;51.730;5.356;2023-07-31T00:26:50;21.17;;;8.20;;
24617;SDS011;12762;51.730;5.356;2023-07-31T00:29:17;24.13;;;7.10;;
24617;SDS011;12762;51.730;5.356;2023-07-31T00:31:44;20.40;;;7.27;;
24617;SDS011;12762;51.730;5.356;2023-07-31T00:34:10;21.20;;;7.30;;
24617;SDS011;12762;51.730;5.356;2023-07-31T00:36:37;17.63;;;6.03;;
24617;SDS011;12762;51.730;5.356;2023-07-31T00:39:04;22.97;;;7.47;;
24617;SDS011;12762;51.730;5.356;2023-07-31T00:41:31;23.03;;;7.27;;
24617;SDS011;12762;51.730;5.356;2023-07-31T00:43:58;20.27;;;6.47;;
24617;SDS011;12762;51.730;5.356;2023-07-31T00:46:25;18.23;;;6.20;;
24617;SDS011;12762;51.730;5.356;2023-07-31T00:48:52;17.73;;;6.13;;
24617;SDS011;12762;51.730;5.356;2023-07-31T00:51:19;18.93;;;6.77;;
24617;SDS011;12762;51.730;5.356;2023-07-31T00:53:46;24.73;;;7.13;;
24617;SDS011;12762;51.730;5.356;2023-07-31T00:56:13;17.07;;;6.30;;
24617;SDS011;12762;51.730;5.356;2023-07-31T00:58:40;20.47;;;6.40;;
24617;SDS011;12762;51.730;5.356;2023-07-31T01:01:07;17.23;;;6.40;;
24617;SDS011;12762;51.730;5.356;2023-07-31T01:03:34;18.87;;;6.10;;
24617;SDS011;12762;51.730;5.356;2023-07-31T01:09:03;23.83;;;6.17;;
24617;SDS011;12762;51.730;5.356;2023-07-31T01:11:38;16.30;;;6.17;;
24617;SDS011;12762;51.730;5.356;2023-07-31T01:14:19;22.73;;;6.67;;
24617;SDS011;12762;51.730;5.356;2023-07-31T01:16:45;14.70;;;5.93;;
24617;SDS011;12762;51.730;5.356;2023-07-31T01:19:13;16.47;;;5.40;;
24617;SDS011;12762;51.730;5.356;2023-07-31T01:27:21;18.00;;;5.57;;
24617;SDS011;12762;51.730;5.356;2023-07-31T01:30:03;20.07;;;5.20;;
24617;SDS011;12762;51.730;5.356;2023-07-31T01:32:39;19.53;;;5.93;;
24617;SDS011;12762;51.730;5.356;2023-07-31T01:35:08;15.67;;;5.23;;
24617;SDS011;12762;51.730;5.356;2023-07-31T01:37:35;22.77;;;5.70;;
24617;SDS011;12762;51.730;5.356;2023-07-31T01:40:03;19.10;;;5.70;;
24617;SDS011;12762;51.730;5.356;2023-07-31T01:42:30;18.67;;;5.60;;
24617;SDS011;12762;51.730;5.356;2023-07-31T01:45:00;15.73;;;5.27;;
24617;SDS011;12762;51.730;5.356;2023-07-31T01:47:27;17.73;;;5.87;;
24617;SDS011;12762;51.730;5.356;2023-07-31T01:49:54;23.40;;;6.77;;
24617;SDS011;12762;51.730;5.356;2023-07-31T01:52:21;17.07;;;5.63;;
24617;SDS011;12762;51.730;5.356;2023-07-31T01:54:48;15.27;;;5.93;;
24617;SDS011;12762;51.730;5.356;2023-07-31T01:57:14;20.20;;;6.63;;
24617;SDS011;12762;51.730;5.356;2023-07-31T01:59:41;14.33;;;6.10;;
24617;SDS011;12762;51.730;5.356;2023-07-31T02:02:08;20.70;;;6.30;;
24617;SDS011;12762;51.730;5.356;2023-07-31T02:04:35;17.27;;;5.70;;
24617;SDS011;12762;51.730;5.356;2023-07-31T02:07:04;16.73;;;5.93;;
24617;SDS011;12762;51.730;5.356;2023-07-31T02:09:31;19.93;;;6.50;;
24617;SDS011;12762;51.730;5.356;2023-07-31T02:11:58;14.03;;;6.20;;
24617;SDS011;12762;51.730;5.356;2023-07-31T02:14:25;17.93;;;5.77;;
24617;SDS011;12762;51.730;5.356;2023-07-31T02:16:52;16.90;;;6.20;;
24617;SDS011;12762;51.730;5.356;2023-07-31T02:19:19;16.07;;;5.90;;
24617;SDS011;12762;51.730;5.356;2023-07-31T02:21:46;20.87;;;6.00;;
24617;SDS011;12762;51.730;5.356;2023-07-31T02:24:13;17.27;;;6.10;;
24617;SDS011;12762;51.730;5.356;2023-07-31T02:26:40;16.13;;;5.27;;
24617;SDS011;12762;51.730;5.356;2023-07-31T02:29:08;15.10;;;5.27;;
24617;SDS011;12762;51.730;5.356;2023-07-31T02:31:35;12.87;;;5.67;;
24617;SDS011;12762;51.730;5.356;2023-07-31T02:34:04;19.50;;;5.27;;
24617;SDS011;12762;51.730;5.356;2023-07-31T02:36:30;17.10;;;5.17;;
24617;SDS011;12762;51.730;5.356;2023-07-31T02:38:57;13.90;;;5.60;;
24617;SDS011;12762;51.730;5.356;2023-07-31T02:41:24;20.50;;;6.00;;
24617;SDS011;12762;51.730;5.356;2023-07-31T02:43:51;15.90;;;5.43;;
24617;SDS011;12762;51.730;5.356;2023-07-31T02:46:18;17.93;;;5.90;;
24617;SDS011;12762;51.730;5.356;2023-07-31T02:48:46;17.70;;;6.10;;
24617;SDS011;12762;51.730;5.356;2023-07-31T02:51:13;15.77;;;5.50;;
24617;SDS011;12762;51.730;5.356;2023-07-31T02:53:40;15.43;;;5.27;;
24617;SDS011;12762;51.730;5.356;2023-07-31T02:56:06;19.90;;;6.17;;
24617;SDS011;12762;51.730;5.356;2023-07-31T02:58:33;18.20;;;5.07;;
24617;SDS011;12762;51.730;5.356;2023-07-31T03:01:00;16.37;;;4.73;;
24617;SDS011;12762;51.730;5.356;2023-07-31T03:03:27;18.00;;;5.60;;
24617;SDS011;12762;51.730;5.356;2023-07-31T03:05:54;18.63;;;5.87;;
24617;SDS011;12762;51.730;5.356;2023-07-31T03:08:21;16.27;;;5.10;;
24617;SDS011;12762;51.730;5.356;2023-07-31T03:10:47;14.83;;;5.47;;
24617;SDS011;12762;51.730;5.356;2023-07-31T03:13:14;13.63;;;5.37;;
24617;SDS011;12762;51.730;5.356;2023-07-31T03:15:42;17.17;;;5.27;;
24617;SDS011;12762;51.730;5.356;2023-07-31T03:18:09;16.17;;;5.00;;
24617;SDS011;12762;51.730;5.356;2023-07-31T03:20:43;17.57;;;5.43;;
24617;SDS011;12762;51.730;5.356;2023-07-31T03:23:13;12.67;;;4.83;;
24617;SDS011;12762;51.730;5.356;2023-07-31T03:25:41;18.37;;;6.00;;
24617;SDS011;12762;51.730;5.356;2023-07-31T03:28:21;13.97;;;5.60;;
24617;SDS011;12762;51.730;5.356;2023-07-31T03:30:48;15.87;;;4.97;;
24617;SDS011;12762;51.730;5.356;2023-07-31T03:33:15;15.80;;;5.20;;
24617;SDS011;12762;51.730;5.356;2023-07-31T03:35:41;15.33;;;5.00;;
24617;SDS011;12762;51.730;5.356;2023-07-31T03:38:08;15.97;;;5.13;;
24617;SDS011;12762;51.730;5.356;2023-07-31T03:40:37;13.63;;;5.47;;
24617;SDS011;12762;51.730;5.356;2023-07-31T03:43:05;17.33;;;5.73;;
24617;SDS011;12762;51.730;5.356;2023-07-31T03:45:31;18.70;;;4.97;;
24617;SDS011;12762;51.730;5.356;2023-07-31T03:47:58;14.93;;;5.60;;
24617;SDS011;12762;51.730;5.356;2023-07-31T03:50:25;13.03;;;4.70;;
24617;SDS011;12762;51.730;5.356;2023-07-31T03:52:52;16.30;;;5.03;;
24617;SDS011;12762;51.730;5.356;2023-07-31T03:55:19;15.27;;;5.60;;
24617;SDS011;12762;51.730;5.356;2023-07-31T03:57:46;17.27;;;5.83;;
24617;SDS011;12762;51.730;5.356;2023-07-31T04:00:13;16.60;;;5.43;;
24617;SDS011;12762;51.730;5.356;2023-07-31T04:02:40;13.03;;;4.93;;
24617;SDS011;12762;51.730;5.356;2023-07-31T04:05:07;17.30;;;5.73;;
24617;SDS011;12762;51.730;5.356;2023-07-31T04:07:34;16.10;;;5.23;;
24617;SDS011;12762;51.730;5.356;2023-07-31T04:10:01;15.83;;;4.93;;
24617;SDS011;12762;51.730;5.356;2023-07-31T04:12:28;15.10;;;5.03;;
24617;SDS011;12762;51.730;5.356;2023-07-31T04:14:55;19.20;;;5.83;;
24617;SDS011;12762;51.730;5.356;2023-07-31T04:17:22;14.37;;;5.57;;
24617;SDS011;12762;51.730;5.356;2023-07-31T04:19:48;14.17;;;5.50;;
24617;SDS011;12762;51.730;5.356;2023-07-31T04:22:15;17.27;;;5.40;;
24617;SDS011;12762;51.730;5.356;2023-07-31T04:24:42;12.60;;;4.87;;
24617;SDS011;12762;51.730;5.356;2023-07-31T04:27:09;16.10;;;5.60;;
24617;SDS011;12762;51.730;5.356;2023-07-31T04:29:35;17.13;;;6.00;;
24617;SDS011;12762;51.730;5.356;2023-07-31T04:32:02;18.53;;;5.63;;
24617;SDS011;12762;51.730;5.356;2023-07-31T04:34:29;11.40;;;4.77;;
24617;SDS011;12762;51.730;5.356;2023-07-31T04:36:56;16.93;;;5.00;;
24617;SDS011;12762;51.730;5.356;2023-07-31T04:39:23;14.00;;;4.90;;
24617;SDS011;12762;51.730;5.356;2023-07-31T04:41:50;13.87;;;5.27;;
24617;SDS011;12762;51.730;5.356;2023-07-31T04:44:16;19.63;;;5.47;;
24617;SDS011;12762;51.730;5.356;2023-07-31T04:46:43;16.23;;;4.93;;
24617;SDS011;12762;51.730;5.356;2023-07-31T04:49:10;14.83;;;5.20;;
24617;SDS011;12762;51.730;5.356;2023-07-31T04:51:37;14.90;;;5.37;;
24617;SDS011;12762;51.730;5.356;2023-07-31T04:54:04;16.80;;;5.30;;
24617;SDS011;12762;51.730;5.356;2023-07-31T04:56:31;13.73;;;5.03;;
24617;SDS011;12762;51.730;5.356;2023-07-31T04:58:58;15.43;;;5.70;;
24617;SDS011;12762;51.730;5.356;2023-07-31T05:01:25;16.07;;;4.87;;
24617;SDS011;12762;51.730;5.356;2023-07-31T05:03:52;14.30;;;4.60;;
24617;SDS011;12762;51.730;5.356;2023-07-31T05:06:19;20.03;;;5.60;;
24617;SDS011;12762;51.730;5.356;2023-07-31T05:08:46;19.13;;;5.23;;
24617;SDS011;12762;51.730;5.356;2023-07-31T05:11:13;13.97;;;5.00;;
24617;SDS011;12762;51.730;5.356;2023-07-31T05:13:40;16.93;;;4.93;;
24617;SDS011;12762;51.730;5.356;2023-07-31T05:16:07;13.77;;;4.77;;
24617;SDS011;12762;51.730;5.356;2023-07-31T05:18:34;20.10;;;5.53;;
24617;SDS011;12762;51.730;5.356;2023-07-31T05:21:01;14.37;;;4.87;;
24617;SDS011;12762;51.730;5.356;2023-07-31T05:23:28;15.10;;;5.50;;
24617;SDS011;12762;51.730;5.356;2023-07-31T05:25:55;17.30;;;5.17;;
24617;SDS011;12762;51.730;5.356;2023-07-31T05:28:28;15.50;;;5.13;;
24617;SDS011;12762;51.730;5.356;2023-07-31T05:30:59;16.43;;;5.30;;
24617;SDS011;12762;51.730;5.356;2023-07-31T05:33:32;12.30;;;4.80;;
24617;SDS011;12762;51.730;5.356;2023-07-31T05:35:59;16.83;;;5.60;;
24617;SDS011;12762;51.730;5.356;2023-07-31T05:38:26;15.90;;;5.30;;
24617;SDS011;12762;51.730;5.356;2023-07-31T05:40:53;16.37;;;5.53;;
24617;SDS011;12762;51.730;5.356;2023-07-31T05:43:20;15.23;;;5.20;;
24617;SDS011;12762;51.730;5.356;2023-07-31T05:45:47;15.03;;;5.13;;
24617;SDS011;12762;51.730;5.356;2023-07-31T05:48:14;13.93;;;5.13;;
24617;SDS011;12762;51.730;5.356;2023-07-31T05:50:40;14.20;;;4.80;;
24617;SDS011;12762;51.730;5.356;2023-07-31T05:53:09;15.13;;;4.60;;
24617;SDS011;12762;51.730;5.356;2023-07-31T05:55:36;11.97;;;4.60;;
24617;SDS011;12762;51.730;5.356;2023-07-31T05:58:03;14.47;;;4.97;;
24617;SDS011;12762;51.730;5.356;2023-07-31T06:00:30;12.93;;;5.70;;
24617;SDS011;12762;51.730;5.356;2023-07-31T06:02:57;11.67;;;4.67;;
24617;SDS011;12762;51.730;5.356;2023-07-31T06:05:23;9.30;;;4.70;;
24617;SDS011;12762;51.730;5.356;2023-07-31T06:07:50;10.60;;;4.63;;
24617;SDS011;12762;51.730;5.356;2023-07-31T06:10:17;8.90;;;3.77;;
24617;SDS011;12762;51.730;5.356;2023-07-31T06:12:44;9.47;;;3.83;;
24617;SDS011;12762;51.730;5.356;2023-07-31T06:15:11;9.67;;;3.97;;
24617;SDS011;12762;51.730;5.356;2023-07-31T06:17:38;8.87;;;3.80;;
24617;SDS011;12762;51.730;5.356;2023-07-31T06:20:06;6.43;;;3.40;;
24617;SDS011;12762;51.730;5.356;2023-07-31T06:22:33;6.53;;;3.77;;
24617;SDS011;12762;51.730;5.356;2023-07-31T06:25:00;8.07;;;3.10;;
24617;SDS011;12762;51.730;5.356;2023-07-31T06:27:27;6.97;;;3.20;;
24617;SDS011;12762;51.730;5.356;2023-07-31T06:29:53;9.20;;;3.00;;
24617;SDS011;12762;51.730;5.356;2023-07-31T06:32:23;6.97;;;3.10;;
24617;SDS011;12762;51.730;5.356;2023-07-31T06:34:50;8.10;;;2.47;;
24617;SDS011;12762;51.730;5.356;2023-07-31T06:37:17;5.93;;;2.57;;
24617;SDS011;12762;51.730;5.356;2023-07-31T06:39:44;4.13;;;2.20;;
24617;SDS011;12762;51.730;5.356;2023-07-31T06:42:12;5.63;;;2.80;;
24617;SDS011;12762;51.730;5.356;2023-07-31T06:44:39;5.27;;;2.30;;
24617;SDS011;12762;51.730;5.356;2023-07-31T06:47:06;7.03;;;2.40;;
24617;SDS011;12762;51.730;5.356;2023-07-31T06:49:33;5.27;;;2.40;;
24617;SDS011;12762;51.730;5.356;2023-07-31T06:52:00;4.20;;;2.37;;
24617;SDS011;12762;51.730;5.356;2023-07-31T06:54:27;6.37;;;2.23;;
24617;SDS011;12762;51.730;5.356;2023-07-31T06:56:54;4.60;;;2.17;;
24617;SDS011;12762;51.730;5.356;2023-07-31T06:59:20;3.87;;;2.10;;
24617;SDS011;12762;51.730;5.356;2023-07-31T07:01:50;3.63;;;2.27;;
24617;SDS011;12762;51.730;5.356;2023-07-31T07:04:17;3.63;;;2.20;;
24617;SDS011;12762;51.730;5.356;2023-07-31T07:06:44;3.30;;;2.07;;
24617;SDS011;12762;51.730;5.356;2023-07-31T07:09:10;4.37;;;2.03;;
24617;SDS011;12762;51.730;5.356;2023-07-31T07:11:38;4.23;;;2.40;;
24617;SDS011;12762;51.730;5.356;2023-07-31T07:14:05;2.80;;;2.00;;
24617;SDS011;12762;51.730;5.356;2023-07-31T07:16:32;4.20;;;2.40;;
24617;SDS011;12762;51.730;5.356;2023-07-31T07:18:59;3.13;;;2.40;;
24617;SDS011;12762;51.730;5.356;2023-07-31T07:21:30;4.87;;;2.30;;
24617;SDS011;12762;51.730;5.356;2023-07-31T07:23:57;4.13;;;2.47;;
24617;SDS011;12762;51.730;5.356;2023-07-31T07:26:26;4.13;;;2.47;;
24617;SDS011;12762;51.730;5.356;2023-07-31T07:28:53;4.03;;;2.57;;
24617;SDS011;12762;51.730;5.356;2023-07-31T07:31:20;4.20;;;2.73;;
24617;SDS011;12762;51.730;5.356;2023-07-31T07:33:48;4.60;;;2.77;;
24617;SDS011;12762;51.730;5.356;2023-07-31T07:36:14;3.43;;;2.60;;
24617;SDS011;12762;51.730;5.356;2023-07-31T07:38:41;3.60;;;2.50;;
24617;SDS011;12762;51.730;5.356;2023-07-31T07:41:08;4.70;;;2.50;;
24617;SDS011;12762;51.730;5.356;2023-07-31T07:43:35;4.20;;;2.80;;
24617;SDS011;12762;51.730;5.356;2023-07-31T07:46:02;4.07;;;2.60;;
24617;SDS011;12762;51.730;5.356;2023-07-31T07:48:28;3.80;;;2.40;;
24617;SDS011;12762;51.730;5.356;2023-07-31T07:50:55;3.23;;;2.20;;
24617;SDS011;12762;51.730;5.356;2023-07-31T07:53:22;4.30;;;2.63;;
24617;SDS011;12762;51.730;5.356;2023-07-31T07:55:49;4.47;;;2.57;;
24617;SDS011;12762;51.730;5.356;2023-07-31T07:58:19;5.40;;;3.17;;
24617;SDS011;12762;51.730;5.356;2023-07-31T08:00:50;5.87;;;3.07;;
24617;SDS011;12762;51.730;5.356;2023-07-31T08:03:18;4.30;;;2.97;;
24617;SDS011;12762;51.730;5.356;2023-07-31T08:05:45;5.93;;;3.07;;
24617;SDS011;12762;51.730;5.356;2023-07-31T08:08:15;5.43;;;3.23;;
24617;SDS011;12762;51.730;5.356;2023-07-31T08:10:42;4.20;;;2.70;;
24617;SDS011;12762;51.730;5.356;2023-07-31T08:13:10;6.27;;;3.63;;
24617;SDS011;12762;51.730;5.356;2023-07-31T08:15:41;7.90;;;3.67;;
24617;SDS011;12762;51.730;5.356;2023-07-31T08:18:09;6.77;;;3.60;;
24617;SDS011;12762;51.730;5.356;2023-07-31T08:20:37;6.33;;;3.63;;
24617;SDS011;12762;51.730;5.356;2023-07-31T08:23:04;5.00;;;3.50;;
24617;SDS011;12762;51.730;5.356;2023-07-31T08:25:34;5.57;;;3.67;;
24617;SDS011;12762;51.730;5.356;2023-07-31T08:28:03;6.17;;;3.73;;
24617;SDS011;12762;51.730;5.356;2023-07-31T08:30:31;6.83;;;4.10;;
24617;SDS011;12762;51.730;5.356;2023-07-31T08:33:02;7.17;;;4.57;;
24617;SDS011;12762;51.730;5.356;2023-07-31T08:35:29;9.90;;;4.50;;
24617;SDS011;12762;51.730;5.356;2023-07-31T08:37:56;8.10;;;3.73;;
24617;SDS011;12762;51.730;5.356;2023-07-31T08:40:23;5.97;;;4.10;;
24617;SDS011;12762;51.730;5.356;2023-07-31T08:42:52;7.30;;;4.57;;
24617;SDS011;12762;51.730;5.356;2023-07-31T08:45:20;6.73;;;4.50;;
24617;SDS011;12762;51.730;5.356;2023-07-31T08:47:51;8.37;;;4.60;;
24617;SDS011;12762;51.730;5.356;2023-07-31T08:50:18;7.53;;;4.80;;
24617;SDS011;12762;51.730;5.356;2023-07-31T08:52:47;8.57;;;4.73;;
24617;SDS011;12762;51.730;5.356;2023-07-31T08:55:17;9.57;;;4.60;;
24617;SDS011;12762;51.730;5.356;2023-07-31T08:57:53;10.77;;;5.37;;
24617;SDS011;12762;51.730;5.356;2023-07-31T09:00:21;8.97;;;4.60;;
24617;SDS011;12762;51.730;5.356;2023-07-31T09:03:02;7.00;;;4.83;;
24617;SDS011;12762;51.730;5.356;2023-07-31T09:05:35;7.97;;;4.80;;
24617;SDS011;12762;51.730;5.356;2023-07-31T09:08:02;8.13;;;5.53;;
24617;SDS011;12762;51.730;5.356;2023-07-31T09:10:31;8.57;;;5.53;;
24617;SDS011;12762;51.730;5.356;2023-07-31T09:12:58;9.20;;;5.60;;
24617;SDS011;12762;51.730;5.356;2023-07-31T09:15:25;10.90;;;5.60;;
24617;SDS011;12762;51.730;5.356;2023-07-31T09:18:04;10.37;;;6.03;;
24617;SDS011;12762;51.730;5.356;2023-07-31T09:20:34;10.57;;;5.77;;
24617;SDS011;12762;51.730;5.356;2023-07-31T09:23:08;8.23;;;5.90;;
24617;SDS011;12762;51.730;5.356;2023-07-31T09:25:39;7.60;;;5.70;;
24617;SDS011;12762;51.730;5.356;2023-07-31T09:28:09;8.23;;;5.83;;
24617;SDS011;12762;51.730;5.356;2023-07-31T09:30:47;10.63;;;6.77;;
24617;SDS011;12762;51.730;5.356;2023-07-31T09:33:15;11.67;;;6.50;;
24617;SDS011;12762;51.730;5.356;2023-07-31T09:35:43;10.40;;;6.63;;
24617;SDS011;12762;51.730;5.356;2023-07-31T09:38:11;10.67;;;6.50;;
24617;SDS011;12762;51.730;5.356;2023-07-31T09:40:45;11.13;;;6.57;;
24617;SDS011;12762;51.730;5.356;2023-07-31T09:43:17;10.03;;;6.23;;
24617;SDS011;12762;51.730;5.356;2023-07-31T09:45:54;11.60;;;6.33;;
24617;SDS011;12762;51.730;5.356;2023-07-31T09:48:23;10.63;;;6.47;;
24617;SDS011;12762;51.730;5.356;2023-07-31T09:50:53;8.23;;;5.57;;
24617;SDS011;12762;51.730;5.356;2023-07-31T09:53:24;9.50;;;6.17;;
24617;SDS011;12762;51.730;5.356;2023-07-31T09:55:57;10.30;;;6.03;;
24617;SDS011;12762;51.730;5.356;2023-07-31T09:58:25;10.63;;;5.47;;
24617;SDS011;12762;51.730;5.356;2023-07-31T10:00:55;9.63;;;5.33;;
24617;SDS011;12762;51.730;5.356;2023-07-31T10:03:24;9.20;;;5.03;;
24617;SDS011;12762;51.730;5.356;2023-07-31T10:05:57;7.47;;;4.97;;
24617;SDS011;12762;51.730;5.356;2023-07-31T10:08:30;8.17;;;5.20;;
24617;SDS011;12762;51.730;5.356;2023-07-31T10:11:01;7.03;;;4.83;;
24617;SDS011;12762;51.730;5.356;2023-07-31T10:13:31;10.40;;;4.70;;
24617;SDS011;12762;51.730;5.356;2023-07-31T10:15:59;8.37;;;4.10;;
24617;SDS011;12762;51.730;5.356;2023-07-31T10:18:27;8.00;;;4.30;;
24617;SDS011;12762;51.730;5.356;2023-07-31T10:20:55;7.33;;;4.60;;
24617;SDS011;12762;51.730;5.356;2023-07-31T10:23:23;8.90;;;4.53;;
24617;SDS011;12762;51.730;5.356;2023-07-31T10:25:53;8.23;;;4.40;;
24617;SDS011;12762;51.730;5.356;2023-07-31T10:28:21;7.27;;;4.23;;
24617;SDS011;12762;51.730;5.356;2023-07-31T10:30:51;9.10;;;4.40;;
24617;SDS011;12762;51.730;5.356;2023-07-31T10:33:18;8.10;;;4.17;;
24617;SDS011;12762;51.730;5.356;2023-07-31T10:35:47;7.57;;;3.90;;
24617;SDS011;12762;51.730;5.356;2023-07-31T10:38:14;8.17;;;3.87;;
24617;SDS011;12762;51.730;5.356;2023-07-31T10:40:42;7.30;;;3.57;;
24617;SDS011;12762;51.730;5.356;2023-07-31T10:43:09;5.90;;;3.93;;
24617;SDS011;12762;51.730;5.356;2023-07-31T10:45:49;6.70;;;4.30;;
24617;SDS011;12762;51.730;5.356;2023-07-31T10:48:16;6.97;;;4.20;;
24617;SDS011;12762;51.730;5.356;2023-07-31T10:51:02;5.57;;;3.67;;
24617;SDS011;12762;51.730;5.356;2023-07-31T10:53:36;5.60;;;4.03;;
24617;SDS011;12762;51.730;5.356;2023-07-31T10:56:08;6.77;;;3.40;;
24617;SDS011;12762;51.730;5.356;2023-07-31T10:58:45;6.93;;;3.80;;
24617;SDS011;12762;51.730;5.356;2023-07-31T11:01:14;7.33;;;3.67;;
24617;SDS011;12762;51.730;5.356;2023-07-31T11:03:42;6.83;;;3.90;;
24617;SDS011;12762;51.730;5.356;2023-07-31T11:06:15;5.10;;;3.40;;
24617;SDS011;12762;51.730;5.356;2023-07-31T11:08:45;5.33;;;3.60;;
24617;SDS011;12762;51.730;5.356;2023-07-31T11:11:14;5.23;;;3.40;;
24617;SDS011;12762;51.730;5.356;2023-07-31T11:16:16;4.67;;;3.40;;
24617;SDS011;12762;51.730;5.356;2023-07-31T11:18:45;4.97;;;3.23;;
24617;SDS011;12762;51.730;5.356;2023-07-31T11:21:17;7.93;;;3.80;;
24617;SDS011;12762;51.730;5.356;2023-07-31T11:23:46;5.73;;;3.80;;
24617;SDS011;12762;51.730;5.356;2023-07-31T11:26:13;5.67;;;3.60;;
24617;SDS011;12762;51.730;5.356;2023-07-31T11:28:41;4.93;;;3.50;;
24617;SDS011;12762;51.730;5.356;2023-07-31T11:31:11;4.87;;;3.53;;
24617;SDS011;12762;51.730;5.356;2023-07-31T11:33:37;5.13;;;3.50;;
24617;SDS011;12762;51.730;5.356;2023-07-31T11:36:15;6.67;;;3.30;;
24617;SDS011;12762;51.730;5.356;2023-07-31T11:38:45;8.10;;;3.87;;
24617;SDS011;12762;51.730;5.356;2023-07-31T11:41:13;6.43;;;4.00;;
24617;SDS011;12762;51.730;5.356;2023-07-31T11:43:42;6.10;;;3.53;;
24617;SDS011;12762;51.730;5.356;2023-07-31T11:46:09;5.23;;;3.30;;
24617;SDS011;12762;51.730;5.356;2023-07-31T11:48:36;8.00;;;3.87;;
24617;SDS011;12762;51.730;5.356;2023-07-31T11:51:05;7.13;;;4.10;;
24617;SDS011;12762;51.730;5.356;2023-07-31T11:56:25;6.97;;;3.70;;
24617;SDS011;12762;51.730;5.356;2023-07-31T11:58:57;6.70;;;3.70;;
24617;SDS011;12762;51.730;5.356;2023-07-31T12:01:26;7.00;;;3.73;;
24617;SDS011;12762;51.730;5.356;2023-07-31T12:03:54;6.37;;;3.90;;
24617;SDS011;12762;51.730;5.356;2023-07-31T12:06:22;8.10;;;4.00;;
24617;SDS011;12762;51.730;5.356;2023-07-31T12:09:03;9.50;;;4.50;;
24617;SDS011;12762;51.730;5.356;2023-07-31T12:11:31;8.00;;;4.60;;
24617;SDS011;12762;51.730;5.356;2023-07-31T12:16:58;8.70;;;3.80;;
24617;SDS011;12762;51.730;5.356;2023-07-31T12:19:29;6.37;;;3.73;;
24617;SDS011;12762;51.730;5.356;2023-07-31T12:21:58;7.53;;;3.97;;
24617;SDS011;12762;51.730;5.356;2023-07-31T12:24:27;6.33;;;3.63;;
24617;SDS011;12762;51.730;5.356;2023-07-31T12:26:55;6.63;;;4.00;;
24617;SDS011;12762;51.730;5.356;2023-07-31T12:29:21;7.60;;;4.20;;
24617;SDS011;12762;51.730;5.356;2023-07-31T12:31:48;6.70;;;4.07;;
24617;SDS011;12762;51.730;5.356;2023-07-31T12:34:16;7.40;;;4.50;;
24617;SDS011;12762;51.730;5.356;2023-07-31T12:36:44;7.23;;;4.53;;
24617;SDS011;12762;51.730;5.356;2023-07-31T12:39:14;9.43;;;4.30;;
24617;SDS011;12762;51.730;5.356;2023-07-31T12:41:41;6.47;;;4.10;;
24617;SDS011;12762;51.730;5.356;2023-07-31T12:44:07;9.77;;;4.30;;
24617;SDS011;12762;51.730;5.356;2023-07-31T12:46:37;6.80;;;3.90;;
24617;SDS011;12762;51.730;5.356;2023-07-31T12:49:05;8.57;;;4.37;;
24617;SDS011;12762;51.730;5.356;2023-07-31T12:51:32;7.47;;;4.57;;
24617;SDS011;12762;51.730;5.356;2023-07-31T12:53:59;8.93;;;4.50;;
24617;SDS011;12762;51.730;5.356;2023-07-31T12:56:25;7.57;;;3.90;;
24617;SDS011;12762;51.730;5.356;2023-07-31T12:58:52;5.80;;;3.80;;
24617;SDS011;12762;51.730;5.356;2023-07-31T13:01:19;7.20;;;4.07;;
24617;SDS011;12762;51.730;5.356;2023-07-31T13:03:46;7.30;;;4.43;;
24617;SDS011;12762;51.730;5.356;2023-07-31T13:06:13;6.83;;;4.00;;
24617;SDS011;12762;51.730;5.356;2023-07-31T13:08:40;7.43;;;3.97;;
24617;SDS011;12762;51.730;5.356;2023-07-31T13:11:07;8.30;;;4.13;;
24617;SDS011;12762;51.730;5.356;2023-07-31T13:13:34;9.37;;;4.23;;
24617;SDS011;12762;51.730;5.356;2023-07-31T13:16:00;8.30;;;4.83;;
24617;SDS011;12762;51.730;5.356;2023-07-31T13:18:27;7.70;;;5.07;;
24617;SDS011;12762;51.730;5.356;2023-07-31T13:20:54;8.13;;;5.20;;
24617;SDS011;12762;51.730;5.356;2023-07-31T13:23:24;7.97;;;4.63;;
24617;SDS011;12762;51.730;5.356;2023-07-31T13:25:51;9.97;;;4.70;;
24617;SDS011;12762;51.730;5.356;2023-07-31T13:28:18;10.80;;;4.97;;
24617;SDS011;12762;51.730;5.356;2023-07-31T13:30:45;9.20;;;5.27;;
24617;SDS011;12762;51.730;5.356;2023-07-31T13:33:12;9.37;;;5.17;;
24617;SDS011;12762;51.730;5.356;2023-07-31T13:35:59;12.57;;;5.47;;
24617;SDS011;12762;51.730;5.356;2023-07-31T13:38:25;8.43;;;4.90;;
24617;SDS011;12762;51.730;5.356;2023-07-31T13:40:52;9.53;;;4.60;;
24617;SDS011;12762;51.730;5.356;2023-07-31T13:43:19;7.37;;;4.80;;
24617;SDS011;12762;51.730;5.356;2023-07-31T13:45:46;8.50;;;5.37;;
24617;SDS011;12762;51.730;5.356;2023-07-31T13:48:13;11.30;;;5.37;;
24617;SDS011;12762;51.730;5.356;2023-07-31T13:50:39;9.03;;;5.03;;
24617;SDS011;12762;51.730;5.356;2023-07-31T13:53:06;10.10;;;4.50;;
24617;SDS011;12762;51.730;5.356;2023-07-31T13:55:33;12.07;;;4.53;;
24617;SDS011;12762;51.730;5.356;2023-07-31T13:58:00;9.13;;;4.73;;
24617;SDS011;12762;51.730;5.356;2023-07-31T14:00:27;9.07;;;4.80;;
24617;SDS011;12762;51.730;5.356;2023-07-31T14:02:55;9.70;;;5.27;;
24617;SDS011;12762;51.730;5.356;2023-07-31T14:05:22;9.33;;;4.83;;
24617;SDS011;12762;51.730;5.356;2023-07-31T14:07:48;8.67;;;5.17;;
24617;SDS011;12762;51.730;5.356;2023-07-31T14:10:15;10.73;;;5.37;;
24617;SDS011;12762;51.730;5.356;2023-07-31T14:12:42;7.73;;;5.47;;
24617;SDS011;12762;51.730;5.356;2023-07-31T14:15:09;10.67;;;5.73;;
24617;SDS011;12762;51.730;5.356;2023-07-31T14:17:37;12.37;;;5.77;;
24617;SDS011;12762;51.730;5.356;2023-07-31T14:20:04;11.07;;;5.53;;
24617;SDS011;12762;51.730;5.356;2023-07-31T14:22:32;11.50;;;5.60;;
24617;SDS011;12762;51.730;5.356;2023-07-31T14:25:00;9.00;;;5.83;;
24617;SDS011;12762;51.730;5.356;2023-07-31T14:27:28;10.97;;;6.30;;
24617;SDS011;12762;51.730;5.356;2023-07-31T14:29:54;9.23;;;5.00;;
24617;SDS011;12762;51.730;5.356;2023-07-31T14:32:22;8.47;;;5.43;;
24617;SDS011;12762;51.730;5.356;2023-07-31T14:34:51;8.43;;;5.23;;
24617;SDS011;12762;51.730;5.356;2023-07-31T14:37:18;11.47;;;5.17;;
24617;SDS011;12762;51.730;5.356;2023-07-31T14:39:45;8.97;;;5.10;;
24617;SDS011;12762;51.730;5.356;2023-07-31T14:42:12;10.40;;;5.23;;
24617;SDS011;12762;51.730;5.356;2023-07-31T14:44:39;9.87;;;5.57;;
24617;SDS011;12762;51.730;5.356;2023-07-31T14:47:06;11.87;;;6.40;;
24617;SDS011;12762;51.730;5.356;2023-07-31T14:49:33;10.77;;;5.93;;
24617;SDS011;12762;51.730;5.356;2023-07-31T14:52:00;13.50;;;6.23;;
24617;SDS011;12762;51.730;5.356;2023-07-31T14:54:26;10.13;;;5.73;;
24617;SDS011;12762;51.730;5.356;2023-07-31T14:56:56;11.30;;;6.17;;
24617;SDS011;12762;51.730;5.356;2023-07-31T14:59:23;14.67;;;6.23;;
24617;SDS011;12762;51.730;5.356;2023-07-31T15:01:49;10.63;;;5.40;;
24617;SDS011;12762;51.730;5.356;2023-07-31T15:04:16;12.10;;;6.47;;